Time;durP1;ratioP1;P1;durP2;ratioP2;P2;SDS_P1;SDS_P2;PMS_P1;PMS_P2;Temp;Humidity;BMP_temperature;BMP_pressure;BME280_temperature;BME280_humidity;BME280_pressure;Samples;Min_cycle;Max_cycle;Signal;HPM_P1;HPM_P2
2022/06/13 00:00:21;;;;;;;9.35;3.28;;;13.50;99.90;;;;;;5109462;28;20032;-82
2022/06/13 00:02:47;;;;;;;7.07;3.20;;;13.50;99.90;;;;;;5107198;28;20089;-82
2022/06/13 00:05:13;;;;;;;8.15;2.92;;;13.70;99.90;;;;;;5109093;28;20467;-82
2022/06/13 00:07:39;;;;;;;12.02;3.88;;;13.40;99.90;;;;;;5106960;28;20051;-82
2022/06/13 00:10:06;;;;;;;12.50;3.45;;;13.40;99.90;;;;;;5108441;28;20502;-82
2022/06/13 00:12:32;;;;;;;15.98;4.40;;;13.30;99.90;;;;;;5091136;28;20096;-82
2022/06/13 00:14:58;;;;;;;13.35;4.10;;;13.30;99.90;;;;;;5090474;28;20051;-81
2022/06/13 00:17:24;;;;;;;11.45;4.07;;;13.30;99.90;;;;;;5057820;28;20046;-82
2022/06/13 00:19:50;;;;;;;9.95;3.58;;;13.30;99.90;;;;;;5107660;28;20127;-82
2022/06/13 00:22:16;;;;;;;14.05;4.30;;;13.90;99.90;;;;;;5108659;28;20126;-82
2022/06/13 00:24:41;;;;;;;11.55;3.90;;;13.20;99.90;;;;;;5106609;28;20127;-82
2022/06/13 00:27:07;;;;;;;11.27;3.60;;;13.20;99.90;;;;;;5109437;28;20584;-81
2022/06/13 00:29:33;;;;;;;9.27;3.20;;;13.90;99.90;;;;;;5107550;28;20043;-82
2022/06/13 00:31:59;;;;;;;10.57;3.50;;;13.20;99.90;;;;;;5107345;28;20530;-81
2022/06/13 00:34:24;;;;;;;9.65;3.33;;;14.00;99.90;;;;;;5091291;28;20394;-81
2022/06/13 00:36:50;;;;;;;14.20;4.07;;;14.00;99.90;;;;;;5106013;28;20086;-82
2022/06/13 00:39:15;;;;;;;13.63;3.40;;;13.10;99.90;;;;;;5108226;28;20087;-82
2022/06/13 00:41:42;;;;;;;11.30;3.75;;;13.10;99.90;;;;;;5105958;28;20094;-81
2022/06/13 00:44:27;;;;;;;14.85;4.07;;;13.10;99.90;;;;;;5108031;28;20130;-82
2022/06/13 00:46:54;;;;;;;11.38;3.40;;;13.10;99.90;;;;;;5107726;28;20453;-82
2022/06/13 00:49:39;;;;;;;10.13;4.22;;;13.10;99.90;;;;;;5089127;28;20100;-82
2022/06/13 00:52:27;;;;;;;7.30;3.35;;;13.10;99.90;;;;;;5108137;28;20105;-82
2022/06/13 00:54:54;;;;;;;15.23;4.25;;;13.10;99.90;;;;;;5106278;28;20050;-82
2022/06/13 00:57:23;;;;;;;10.23;4.43;;;13.90;99.90;;;;;;5073324;28;20043;-82
2022/06/13 00:59:53;;;;;;;9.73;3.22;;;13.20;99.90;;;;;;5090582;28;20047;-82
2022/06/13 01:02:19;;;;;;;14.85;3.95;;;13.30;99.90;;;;;;5105930;28;20047;-82
2022/06/13 01:04:48;;;;;;;11.13;4.50;;;13.30;99.90;;;;;;5108218;28;20043;-82
2022/06/13 01:07:14;;;;;;;11.80;4.00;;;13.30;99.90;;;;;;5105939;28;20118;-82
2022/06/13 01:12:26;;;;;;;9.98;3.92;;;13.40;99.90;;;;;;5107389;28;20082;-82
2022/06/13 01:15:13;;;;;;;15.55;4.15;;;13.40;99.90;;;;;;5106365;28;20070;-81
2022/06/13 01:18:10;;;;;;;11.48;3.38;;;13.50;99.90;;;;;;5090606;28;20054;-82
2022/06/13 01:20:59;;;;;;;11.93;4.13;;;13.50;99.90;;;;;;5105810;28;20108;-82
2022/06/13 01:24:03;;;;;;;11.38;4.25;;;13.50;99.90;;;;;;5106011;28;20047;-81
2022/06/13 01:26:52;;;;;;;11.15;3.97;;;13.60;99.90;;;;;;5107524;28;20083;-81
2022/06/13 01:30:02;;;;;;;11.80;3.83;;;13.60;99.90;;;;;;5106471;28;20055;-82
2022/06/13 01:32:43;;;;;;;11.73;4.22;;;13.60;99.90;;;;;;4990958;28;20452;-82
2022/06/13 01:35:25;;;;;;;10.00;3.53;;;13.60;99.90;;;;;;5009574;28;20041;-82
2022/06/13 01:38:23;;;;;;;14.15;4.40;;;13.60;99.90;;;;;;5056456;28;20374;-82
2022/06/13 01:41:10;;;;;;;12.07;4.30;;;13.60;99.90;;;;;;5083065;28;20138;-82
2022/06/13 01:43:53;;;;;;;13.80;4.00;;;13.70;99.90;;;;;;5090366;28;20052;-82
2022/06/13 01:46:38;;;;;;;10.73;3.67;;;13.70;99.90;;;;;;5088585;28;20050;-82
2022/06/13 01:49:11;;;;;;;10.27;4.15;;;13.70;99.90;;;;;;5089027;28;20431;-82
2022/06/13 01:51:42;;;;;;;10.13;4.32;;;13.80;99.90;;;;;;5090647;28;20404;-82
2022/06/13 01:54:54;;;;;;;9.65;3.60;;;13.80;99.90;;;;;;5088302;28;20123;-82
2022/06/13 01:57:26;;;;;;;9.57;3.72;;;13.80;99.90;;;;;;5008102;28;20054;-82
2022/06/13 02:00:01;;;;;;;15.00;3.40;;;13.80;99.90;;;;;;5090450;28;20052;-82
2022/06/13 02:02:58;;;;;;;14.43;3.90;;;13.80;99.90;;;;;;5088252;28;20450;-82
2022/06/13 02:05:44;;;;;;;13.05;3.97;;;13.80;99.90;;;;;;5085301;28;20142;-82
2022/06/13 02:08:50;;;;;;;16.08;3.92;;;13.80;99.90;;;;;;5089257;28;20128;-82
2022/06/13 02:11:21;;;;;;;9.70;3.35;;;13.90;99.90;;;;;;5093493;28;20063;-82
2022/06/13 02:14:13;;;;;;;12.60;3.53;;;13.90;99.90;;;;;;5090410;28;20109;-82
2022/06/13 02:16:49;;;;;;;12.07;3.65;;;13.90;99.90;;;;;;5088975;28;20043;-82
2022/06/13 02:19:23;;;;;;;11.73;4.28;;;13.90;99.90;;;;;;5088623;28;20084;-82
2022/06/13 02:21:58;;;;;;;12.60;3.00;;;13.90;99.90;;;;;;5107243;28;20055;-82
2022/06/13 02:24:33;;;;;;;14.88;3.45;;;14.00;99.90;;;;;;5104440;28;20047;-82
2022/06/13 02:27:01;;;;;;;9.13;3.20;;;13.90;99.90;;;;;;5106296;28;20051;-82
2022/06/13 02:29:35;;;;;;;10.70;3.20;;;13.90;99.90;;;;;;5089192;28;20396;-82
2022/06/13 02:32:26;;;;;;;11.52;3.38;;;13.90;99.90;;;;;;5104927;28;20043;-82
2022/06/13 02:35:07;;;;;;;15.00;3.35;;;13.90;99.90;;;;;;5089635;28;20035;-82
2022/06/13 02:37:38;;;;;;;13.77;3.60;;;13.90;99.90;;;;;;5087796;28;20048;-82
2022/06/13 02:40:25;;;;;;;11.52;3.45;;;14.20;99.90;;;;;;5105733;28;20047;-82
2022/06/13 02:43:12;;;;;;;7.57;2.97;;;13.90;99.90;;;;;;5106643;28;20054;-82
2022/06/13 02:45:47;;;;;;;10.05;2.38;;;13.90;99.90;;;;;;5104350;28;20043;-82
2022/06/13 02:48:40;;;;;;;15.75;3.03;;;13.90;99.90;;;;;;5089499;28;20106;-82
2022/06/13 02:51:20;;;;;;;9.00;2.40;;;13.90;99.90;;;;;;5106317;28;20452;-82
2022/06/13 02:53:49;;;;;;;9.63;3.00;;;13.90;99.90;;;;;;5108965;28;20441;-82
2022/06/13 02:56:37;;;;;;;13.88;3.40;;;13.80;99.90;;;;;;5110110;28;20039;-82
2022/06/13 02:59:17;;;;;;;10.88;3.00;;;13.90;99.90;;;;;;5109219;28;20462;-82
2022/06/13 03:01:46;;;;;;;9.23;2.88;;;13.90;99.90;;;;;;5109211;28;20040;-82
2022/06/13 03:04:19;;;;;;;11.80;2.60;;;14.50;99.90;;;;;;5093440;28;20039;-82
2022/06/13 03:06:50;;;;;;;10.60;2.70;;;13.90;99.90;;;;;;5091629;28;20050;-82
2022/06/13 03:09:45;;;;;;;12.50;3.25;;;13.90;99.90;;;;;;5110023;28;20131;-82
2022/06/13 03:12:27;;;;;;;9.20;3.55;;;13.90;99.90;;;;;;5092146;28;20051;-82
2022/06/13 03:15:20;;;;;;;12.27;3.72;;;13.90;99.90;;;;;;5091297;28;20423;-82
2022/06/13 03:17:53;;;;;;;11.32;2.13;;;13.90;99.90;;;;;;5093108;28;20047;-82
2022/06/13 03:20:43;;;;;;;9.93;3.35;;;13.80;99.90;;;;;;5109728;28;20047;-82
2022/06/13 03:23:14;;;;;;;12.38;2.78;;;13.80;99.90;;;;;;5108391;28;20051;-82
2022/06/13 03:26:06;;;;;;;9.77;2.72;;;13.90;99.90;;;;;;5109679;28;20044;-82
2022/06/13 03:28:44;;;;;;;11.32;2.75;;;13.80;99.90;;;;;;5106680;28;20052;-82
2022/06/13 03:31:24;;;;;;;8.05;2.65;;;13.80;99.90;;;;;;5109759;28;20131;-82
2022/06/13 03:33:56;;;;;;;8.85;2.83;;;13.80;99.90;;;;;;5109117;28;20189;-82
2022/06/13 03:36:34;;;;;;;17.92;3.20;;;13.70;99.90;;;;;;5091382;28;20541;-82
2022/06/13 03:39:20;;;;;;;7.90;2.80;;;13.70;99.90;;;;;;5111923;28;20055;-82
2022/06/13 03:42:02;;;;;;;6.90;2.75;;;13.70;99.90;;;;;;5110838;28;20062;-82
2022/06/13 03:44:54;;;;;;;8.35;2.85;;;13.60;99.90;;;;;;5111540;28;20051;-82
2022/06/13 03:47:22;;;;;;;5.13;2.28;;;13.60;99.90;;;;;;5112601;28;20047;-82
2022/06/13 03:50:17;;;;;;;7.68;2.58;;;13.60;99.90;;;;;;5093230;28;20537;-82
2022/06/13 03:52:50;;;;;;;8.18;2.42;;;13.60;99.90;;;;;;5094354;28;20052;-82
2022/06/13 03:55:23;;;;;;;13.07;2.58;;;13.60;99.90;;;;;;5111235;28;20043;-82
2022/06/13 03:57:58;;;;;;;11.45;2.58;;;13.60;99.90;;;;;;5109813;28;20039;-82
2022/06/13 04:00:32;;;;;;;6.97;2.78;;;13.70;99.90;;;;;;5111534;28;20059;-82
2022/06/13 04:03:00;;;;;;;7.25;2.42;;;14.40;99.90;;;;;;5109525;28;20039;-82
2022/06/13 04:05:34;;;;;;;12.50;3.05;;;13.70;99.90;;;;;;5110968;28;20055;-82
2022/06/13 04:08:01;;;;;;;10.32;2.45;;;13.70;99.90;;;;;;5111161;28;20403;-81
2022/06/13 04:10:29;;;;;;;11.38;2.85;;;13.80;99.90;;;;;;5093724;28;20036;-82
2022/06/13 04:13:10;;;;;;;14.15;3.13;;;13.90;99.90;;;;;;5095704;28;20092;-82
2022/06/13 04:16:00;;;;;;;11.05;2.45;;;13.90;99.90;;;;;;5111763;28;20048;-81
2022/06/13 04:19:10;;;;;;;10.82;2.45;;;13.90;99.90;;;;;;5114647;28;20050;-82
2022/06/13 04:22:08;;;;;;;9.05;2.35;;;14.00;99.90;;;;;;5076213;28;20059;-81
2022/06/13 04:24:44;;;;;;;7.97;2.55;;;14.10;99.90;;;;;;5071298;28;20059;-82
2022/06/13 04:27:19;;;;;;;9.75;2.33;;;14.10;99.90;;;;;;5110442;28;20040;-82
2022/06/13 04:30:14;;;;;;;9.07;2.10;;;14.20;99.90;;;;;;5094733;28;20046;-82
2022/06/13 04:32:43;;;;;;;9.35;2.38;;;14.20;99.90;;;;;;5079035;28;20047;-81
2022/06/13 04:35:09;;;;;;;11.50;2.25;;;14.50;99.90;;;;;;5091230;28;20508;-83
2022/06/13 04:37:37;;;;;;;6.25;2.38;;;14.30;99.90;;;;;;5072993;28;20130;-84
2022/06/13 04:40:08;;;;;;;8.45;2.35;;;14.40;99.90;;;;;;5108949;28;20040;-82
2022/06/13 04:42:38;;;;;;;6.75;1.95;;;14.40;99.90;;;;;;5108479;28;20040;-84
2022/06/13 04:45:18;;;;;;;9.98;2.70;;;14.50;99.90;;;;;;5089709;28;20139;-83
2022/06/13 04:47:45;;;;;;;7.18;2.00;;;14.50;99.90;;;;;;5091134;28;20048;-84
2022/06/13 04:50:26;;;;;;;11.75;2.45;;;14.60;99.90;;;;;;5072673;28;20091;-84
2022/06/13 04:52:54;;;;;;;9.43;2.80;;;14.60;99.90;;;;;;5107601;28;20043;-84
2022/06/13 04:55:40;;;;;;;4.05;1.58;;;14.60;99.90;;;;;;5111893;28;20555;-85
2022/06/13 04:58:25;;;;;;;8.60;2.20;;;14.60;99.90;;;;;;5107346;28;20566;-84
2022/06/13 05:01:00;;;;;;;5.72;1.90;;;14.70;99.90;;;;;;5107996;28;20052;-83
2022/06/13 05:03:29;;;;;;;8.13;1.92;;;14.60;99.90;;;;;;5106766;28;20039;-85
2022/06/13 05:06:01;;;;;;;8.45;1.90;;;14.60;99.90;;;;;;5089546;28;20514;-83
2022/06/13 05:08:31;;;;;;;7.35;1.90;;;14.50;99.90;;;;;;5091275;28;20055;-83
2022/06/13 05:11:15;;;;;;;9.48;1.90;;;14.40;99.90;;;;;;5089017;28;20040;-83
2022/06/13 05:13:40;;;;;;;7.53;1.60;;;14.20;99.90;;;;;;5107934;28;20043;-81
2022/06/13 05:16:17;;;;;;;7.90;1.33;;;14.20;99.90;;;;;;5072111;28;20496;-82
2022/06/13 05:19:17;;;;;;;9.85;1.73;;;14.10;99.90;;;;;;5106391;28;20039;-82
2022/06/13 05:21:50;;;;;;;5.40;0.80;;;14.00;99.90;;;;;;5090958;28;20128;-82
2022/06/13 05:25:03;;;;;;;3.67;0.90;;;13.90;99.90;;;;;;5088367;28;20044;-82
2022/06/13 05:27:29;;;;;;;3.13;1.08;;;13.80;99.90;;;;;;5050329;28;20167;-83
2022/06/13 05:29:54;;;;;;;2.00;1.10;;;13.80;99.90;;;;;;5106918;28;20040;-83
2022/06/13 05:32:22;;;;;;;6.22;1.25;;;13.80;99.90;;;;;;5088683;28;20126;-83
2022/06/13 05:34:49;;;;;;;5.43;1.15;;;13.80;99.90;;;;;;5090457;28;20377;-83
2022/06/13 05:37:16;;;;;;;2.03;0.88;;;13.90;99.90;;;;;;5088248;28;20059;-83
2022/06/13 05:39:43;;;;;;;4.38;0.93;;;14.10;99.90;;;;;;5090295;28;20128;-83
2022/06/13 05:42:13;;;;;;;8.55;1.10;;;14.20;99.90;;;;;;5106541;28;20057;-83
2022/06/13 05:44:40;;;;;;;4.28;1.10;;;14.40;99.90;;;;;;5105952;28;20088;-83
2022/06/13 05:47:13;;;;;;;1.55;1.20;;;14.60;99.90;;;;;;5106828;28;20043;-83
2022/06/13 05:49:39;;;;;;;7.88;1.40;;;15.60;99.90;;;;;;5104952;28;20044;-83
2022/06/13 05:52:05;;;;;;;5.88;1.77;;;15.00;99.90;;;;;;5106992;28;20039;-83
2022/06/13 05:54:30;;;;;;;8.57;1.13;;;15.10;99.90;;;;;;5105235;28;20043;-83
2022/06/13 05:56:56;;;;;;;5.03;0.93;;;15.10;99.90;;;;;;5089374;28;20047;-84
2022/06/13 05:59:22;;;;;;;5.57;0.77;;;15.20;99.90;;;;;;5072263;28;20484;-82
2022/06/13 06:01:47;;;;;;;6.57;0.98;;;15.70;99.90;;;;;;5105112;28;20098;-83
2022/06/13 06:04:13;;;;;;;3.58;1.35;;;14.90;99.90;;;;;;5089848;28;20450;-83
2022/06/13 06:06:39;;;;;;;3.55;0.85;;;14.90;99.90;;;;;;5070841;28;20069;-83
2022/06/13 06:09:06;;;;;;;4.00;0.73;;;14.80;99.90;;;;;;5089924;28;20061;-82
2022/06/13 06:11:32;;;;;;;6.63;0.88;;;14.90;99.90;;;;;;5106488;28;20054;-83
2022/06/13 06:13:58;;;;;;;2.90;0.52;;;14.90;99.90;;;;;;5108110;28;20079;-82
2022/06/13 06:16:26;;;;;;;3.30;0.57;;;15.40;99.90;;;;;;5107497;28;20031;-83
2022/06/13 06:18:52;;;;;;;6.55;0.70;;;15.20;99.90;;;;;;5105437;28;20040;-83
2022/06/13 06:21:18;;;;;;;3.70;0.93;;;15.40;99.90;;;;;;5106703;28;20509;-83
2022/06/13 06:23:44;;;;;;;7.85;1.20;;;15.50;99.90;;;;;;5104464;28;20122;-83
2022/06/13 06:26:12;;;;;;;3.95;1.08;;;15.50;99.90;;;;;;5089548;28;20048;-83
2022/06/13 06:28:38;;;;;;;7.18;0.82;;;15.50;99.90;;;;;;5109104;28;20141;-84
2022/06/13 06:31:04;;;;;;;4.10;0.88;;;15.30;99.90;;;;;;5110093;28;20126;-84
2022/06/13 06:33:32;;;;;;;4.75;1.00;;;15.20;99.90;;;;;;5110123;28;20126;-84
2022/06/13 06:35:58;;;;;;;3.90;0.73;;;15.10;99.90;;;;;;5109460;28;20112;-83
2022/06/13 06:38:26;;;;;;;5.70;1.05;;;15.60;99.90;;;;;;5110091;28;20492;-84
2022/06/13 06:40:52;;;;;;;8.55;0.88;;;14.90;99.90;;;;;;5108792;28;20046;-83
2022/06/13 06:43:18;;;;;;;6.63;0.70;;;14.90;99.90;;;;;;5110533;28;20108;-83
2022/06/13 06:45:45;;;;;;;9.40;0.68;;;14.90;99.90;;;;;;5091671;28;20106;-84
2022/06/13 06:48:22;;;;;;;3.13;0.60;;;15.10;99.90;;;;;;5111593;28;20405;-83
2022/06/13 06:50:52;;;;;;;4.07;1.23;;;15.10;99.90;;;;;;5093803;28;20125;-84
2022/06/13 06:53:20;;;;;;;7.60;1.05;;;15.20;99.90;;;;;;5092156;28;20043;-83
2022/06/13 07:01:22;;;;;;;5.95;1.27;;;15.40;99.90;;;;;;5095515;28;20059;-85
2022/06/13 07:03:48;;;;;;;8.10;1.00;;;15.30;99.90;;;;;;5075623;28;20490;-85
2022/06/13 07:06:15;;;;;;;4.10;1.00;;;15.20;99.90;;;;;;5074632;28;20083;-84
2022/06/13 07:08:43;;;;;;;6.63;1.40;;;15.10;99.90;;;;;;5110605;28;20049;-84
2022/06/13 07:14:03;;;;;;;5.97;0.77;;;15.00;99.90;;;;;;5109514;28;20047;-84
2022/06/13 07:16:28;;;;;;;3.47;0.75;;;15.10;99.90;;;;;;5092426;28;20046;-84
2022/06/13 07:18:54;;;;;;;2.05;0.60;;;15.20;99.90;;;;;;5091484;28;20515;-84
2022/06/13 07:21:23;;;;;;;10.32;1.25;;;15.30;99.90;;;;;;5110086;28;20047;-84
2022/06/13 07:23:54;;;;;;;9.38;0.98;;;15.40;99.90;;;;;;5109981;28;20044;-84
2022/06/13 07:26:23;;;;;;;4.45;0.88;;;15.50;99.90;;;;;;5110481;28;20083;-84
2022/06/13 07:28:52;;;;;;;5.68;1.00;;;15.80;99.90;;;;;;5074587;28;20484;-83
2022/06/13 07:31:21;;;;;;;5.68;1.25;;;16.00;99.90;;;;;;5092163;28;20047;-83
2022/06/13 07:33:49;;;;;;;3.67;0.75;;;16.10;99.90;;;;;;5109043;28;20086;-84
2022/06/13 07:36:16;;;;;;;7.75;0.80;;;16.00;99.90;;;;;;5092062;28;20424;-83
2022/06/13 07:38:42;;;;;;;4.97;1.05;;;15.90;99.90;;;;;;5091461;28;20052;-84
2022/06/13 07:41:15;;;;;;;2.63;0.55;;;15.70;99.90;;;;;;5073261;28;20051;-83
2022/06/13 07:43:43;;;;;;;1.67;0.65;;;15.70;99.90;;;;;;5109438;28;20050;-84
2022/06/13 07:46:10;;;;;;;7.40;0.80;;;15.70;99.90;;;;;;5089997;28;20536;-84
2022/06/13 07:48:39;;;;;;;5.50;0.75;;;16.50;99.90;;;;;;5107701;28;20086;-84
2022/06/13 07:51:05;;;;;;;5.82;1.23;;;15.80;99.90;;;;;;5092142;28;20044;-84
2022/06/13 07:53:32;;;;;;;5.78;0.70;;;15.80;99.90;;;;;;5107938;28;20427;-84
2022/06/13 07:55:58;;;;;;;10.75;0.88;;;15.80;99.90;;;;;;5092294;28;20051;-84
2022/06/13 07:58:34;;;;;;;3.13;0.60;;;16.00;99.90;;;;;;5107002;28;20044;-84
2022/06/13 08:01:01;;;;;;;2.83;0.35;;;16.20;99.90;;;;;;5110023;28;20377;-84
2022/06/13 08:03:29;;;;;;;4.45;0.45;;;16.70;99.90;;;;;;5110180;28;20047;-85
2022/06/13 08:05:56;;;;;;;4.93;0.68;;;16.40;99.90;;;;;;5091920;28;20515;-85
2022/06/13 08:08:22;;;;;;;4.53;0.50;;;16.40;99.90;;;;;;5093030;28;20051;-85
2022/06/13 08:10:53;;;;;;;4.30;0.50;;;16.50;99.90;;;;;;5109084;28;20035;-84
2022/06/13 08:13:22;;;;;;;5.32;0.63;;;16.50;99.90;;;;;;5109605;28;20055;-83
2022/06/13 08:15:51;;;;;;;3.47;0.60;;;16.60;99.90;;;;;;5109387;28;20084;-83
2022/06/13 08:18:18;;;;;;;4.75;0.77;;;16.70;99.90;;;;;;5111115;28;20093;-83
2022/06/13 08:20:44;;;;;;;4.68;0.60;;;16.70;99.90;;;;;;5110627;28;20036;-84
2022/06/13 08:23:12;;;;;;;5.68;0.47;;;16.80;99.90;;;;;;5109150;28;20131;-83
2022/06/13 08:25:39;;;;;;;4.15;0.52;;;17.10;99.90;;;;;;5109275;28;20047;-84
2022/06/13 08:28:06;;;;;;;8.43;0.70;;;17.00;99.90;;;;;;5109130;28;20449;-83
2022/06/13 08:31:01;;;;;;;3.55;0.50;;;17.10;99.90;;;;;;5111127;28;20051;-83
2022/06/13 08:33:27;;;;;;;9.63;1.13;;;17.90;99.90;;;;;;5107015;28;20050;-83
2022/06/13 08:35:53;;;;;;;5.63;0.65;;;17.20;99.90;;;;;;5108023;28;20434;-84
2022/06/13 08:38:23;;;;;;;4.45;0.75;;;17.40;99.90;;;;;;5107884;28;20126;-82
2022/06/13 08:41:04;;;;;;;4.07;0.60;;;17.20;99.90;;;;;;5089532;28;20092;-83
2022/06/13 08:43:50;;;;;;;6.13;0.93;;;17.20;99.90;;;;;;5112544;28;20049;-83
2022/06/13 08:46:42;;;;;;;3.38;0.50;;;17.10;99.90;;;;;;5107428;28;20185;-83
2022/06/13 08:50:04;;;;;;;9.10;1.08;;;16.90;99.90;;;;;;5108127;28;20043;-83
2022/06/13 08:52:54;;;;;;;1.35;0.40;;;18.00;99.90;;;;;;5009754;28;20128;-82
2022/06/13 08:55:32;;;;;;;7.20;0.60;;;17.00;99.90;;;;;;5085923;28;20051;-82
2022/06/13 08:58:12;;;;;;;4.55;0.88;;;17.30;99.90;;;;;;5107801;28;20073;-82
2022/06/13 09:00:45;;;;;;;2.40;0.50;;;16.70;99.90;;;;;;5109448;28;20071;-82
2022/06/13 09:03:18;;;;;;;1.27;0.28;;;16.80;99.90;;;;;;5107466;27;20558;-83
2022/06/13 09:05:56;;;;;;;5.25;0.80;;;17.10;99.90;;;;;;5108797;28;20035;-83
2022/06/13 09:08:41;;;;;;;6.70;0.93;;;17.30;99.90;;;;;;5107202;28;20496;-82
2022/06/13 09:11:15;;;;;;;2.28;0.45;;;17.50;99.90;;;;;;5106853;28;20043;-82
2022/06/13 09:14:02;;;;;;;4.57;0.65;;;17.60;99.90;;;;;;5109050;28;20102;-83
2022/06/13 09:16:34;;;;;;;4.38;0.80;;;17.60;99.90;;;;;;5106622;28;20100;-83
2022/06/13 09:19:14;;;;;;;7.13;0.77;;;17.70;99.90;;;;;;5089416;28;20484;-82
2022/06/13 09:22:01;;;;;;;9.15;0.93;;;17.80;99.90;;;;;;5107519;28;20147;-82
2022/06/13 09:24:44;;;;;;;7.78;1.02;;;18.00;99.90;;;;;;5106645;28;20464;-83
2022/06/13 09:27:16;;;;;;;1.20;0.22;;;18.00;99.90;;;;;;5106668;28;20177;-83
2022/06/13 09:29:53;;;;;;;5.35;0.93;;;18.10;99.90;;;;;;5108406;28;20048;-83
2022/06/13 09:32:28;;;;;;;7.32;0.68;;;18.90;99.90;;;;;;5106972;28;20051;-83
2022/06/13 09:35:04;;;;;;;2.85;0.70;;;17.80;99.90;;;;;;5107417;28;20047;-82
2022/06/13 09:37:48;;;;;;;5.35;0.77;;;17.60;99.90;;;;;;5106594;28;20048;-83
2022/06/13 09:40:22;;;;;;;3.40;0.63;;;17.80;99.90;;;;;;5107431;28;20508;-83
2022/06/13 09:43:18;;;;;;;3.22;0.60;;;17.90;99.90;;;;;;5106823;28;20496;-82
2022/06/13 09:46:09;;;;;;;5.82;0.75;;;17.80;99.90;;;;;;5067836;27;20051;-83
2022/06/13 09:48:52;;;;;;;4.13;0.80;;;17.80;99.90;;;;;;5107922;28;20043;-82
2022/06/13 09:51:53;;;;;;;9.65;1.45;;;18.00;99.90;;;;;;5107987;28;20538;-84
2022/06/13 09:54:41;;;;;;;4.55;0.80;;;18.30;99.90;;;;;;5106815;28;20050;-83
2022/06/13 09:57:15;;;;;;;4.90;0.70;;;18.70;99.90;;;;;;5108163;28;20055;-83
2022/06/13 10:00:11;;;;;;;5.93;1.00;;;18.70;99.90;;;;;;5106114;28;20047;-83
2022/06/13 10:02:58;;;;;;;3.17;0.73;;;18.30;99.90;;;;;;5104234;28;20460;-83
2022/06/13 10:05:40;;;;;;;3.50;0.80;;;18.00;99.90;;;;;;5106955;28;20051;-84
2022/06/13 10:08:37;;;;;;;7.28;0.90;;;17.70;99.90;;;;;;5105749;28;20132;-83
2022/06/13 10:11:24;;;;;;;3.25;0.63;;;17.60;99.90;;;;;;5106148;28;20040;-84
2022/06/13 10:14:05;;;;;;;3.65;0.60;;;17.90;99.90;;;;;;5106966;28;20617;-84
2022/06/13 10:16:52;;;;;;;9.10;1.02;;;18.20;99.90;;;;;;5105860;28;20035;-83
2022/06/13 10:20:01;;;;;;;3.90;1.20;;;18.30;99.90;;;;;;5105423;28;20047;-83
2022/06/13 10:23:03;;;;;;;6.60;1.20;;;18.20;99.90;;;;;;5063828;28;20051;-83
2022/06/13 10:25:40;;;;;;;2.72;0.85;;;18.30;99.90;;;;;;5106032;28;20419;-84
2022/06/13 10:28:22;;;;;;;6.35;0.80;;;18.20;99.90;;;;;;5106127;28;20051;-83
2022/06/13 10:30:54;;;;;;;5.45;0.93;;;18.10;99.20;;;;;;5107047;28;20044;-83
2022/06/13 10:33:31;;;;;;;6.00;0.65;;;18.20;99.90;;;;;;5088262;28;20043;-83
2022/06/13 10:36:12;;;;;;;8.98;1.20;;;18.60;99.80;;;;;;5107262;28;20047;-83
2022/06/13 10:38:42;;;;;;;2.55;0.50;;;18.80;99.50;;;;;;5107534;28;20528;-83
2022/06/13 10:41:09;;;;;;;5.53;0.90;;;19.00;98.90;;;;;;5105366;28;20052;-83
2022/06/13 10:43:37;;;;;;;6.97;0.90;;;19.10;98.60;;;;;;5108606;28;20043;-83
2022/06/13 10:46:07;;;;;;;3.53;0.82;;;19.10;98.30;;;;;;5104755;28;20043;-83
2022/06/13 10:48:43;;;;;;;6.30;1.45;;;19.00;98.40;;;;;;5106218;28;20485;-83
2022/06/13 10:51:09;;;;;;;8.82;0.93;;;19.20;98.60;;;;;;5105685;28;20054;-83
2022/06/13 10:54:04;;;;;;;4.60;1.10;;;19.40;98.60;;;;;;5087809;28;20040;-83
2022/06/13 10:56:40;;;;;;;6.85;1.00;;;19.40;97.70;;;;;;5098200;28;20052;-83
2022/06/13 10:59:23;;;;;;;5.03;0.73;;;19.30;98.60;;;;;;5106237;28;20048;-83
2022/06/13 11:02:24;;;;;;;6.32;1.15;;;19.30;99.40;;;;;;5105385;28;20073;-82
2022/06/13 11:05:12;;;;;;;8.75;1.25;;;19.20;98.90;;;;;;5108014;28;20051;-82
2022/06/13 11:07:48;;;;;;;4.50;1.05;;;19.20;99.90;;;;;;5105048;28;20035;-83
2022/06/13 11:10:35;;;;;;;6.53;1.15;;;19.20;99.50;;;;;;5104954;28;20500;-83
2022/06/13 11:13:05;;;;;;;6.35;1.10;;;18.90;98.00;;;;;;5107526;28;20457;-83
2022/06/13 11:24:53;;;;;;;6.18;0.70;;;19.20;95.40;;;;;;5108297;28;20387;-83
2022/06/13 11:27:40;;;;;;;4.95;1.15;;;19.40;96.20;;;;;;5108638;28;20063;-82
2022/06/13 11:30:28;;;;;;;6.88;0.82;;;19.50;96.30;;;;;;5109491;28;20126;-82
2022/06/13 11:33:53;;;;;;;2.55;0.47;;;19.70;94.80;;;;;;5108034;28;20047;-82
2022/06/13 11:36:28;;;;;;;4.38;0.70;;;19.60;94.30;;;;;;5109358;28;20039;-82
2022/06/13 11:38:59;;;;;;;4.05;0.90;;;19.30;94.10;;;;;;5092167;28;20055;-82
2022/06/13 11:41:39;;;;;;;4.75;0.95;;;19.10;96.10;;;;;;5108455;28;20048;-82
2022/06/13 11:44:14;;;;;;;10.63;1.02;;;18.90;96.60;;;;;;5092751;28;20051;-82
2022/06/13 11:46:42;;;;;;;7.63;1.10;;;18.80;97.40;;;;;;5108344;28;20075;-82
2022/06/13 11:49:14;;;;;;;2.83;0.95;;;18.70;97.70;;;;;;5109562;27;20839;-81
2022/06/13 11:52:06;;;;;;;4.60;0.90;;;19.50;97.60;;;;;;5110799;28;20047;-82
2022/06/13 11:54:47;;;;;;;5.18;0.98;;;18.70;98.40;;;;;;5106966;28;20055;-81
2022/06/13 11:57:21;;;;;;;8.30;1.08;;;18.90;98.70;;;;;;5108327;28;20101;-82
2022/06/13 12:00:06;;;;;;;3.50;0.60;;;19.10;95.20;;;;;;5110368;28;20471;-82
2022/06/13 12:02:52;;;;;;;10.23;0.88;;;19.00;93.80;;;;;;5108172;28;20039;-82
2022/06/13 12:05:22;;;;;;;4.93;0.50;;;19.00;95.40;;;;;;5109943;28;20552;-81
2022/06/13 12:08:04;;;;;;;3.05;0.57;;;19.20;96.50;;;;;;5109253;28;20494;-82
2022/06/13 12:10:35;;;;;;;5.55;0.70;;;19.50;97.00;;;;;;5108841;28;20407;-82
2022/06/13 12:13:03;;;;;;;6.60;1.00;;;19.70;96.10;;;;;;5109984;28;20488;-83
2022/06/13 12:15:37;;;;;;;4.65;0.90;;;19.50;95.40;;;;;;5089970;28;20155;-83
2022/06/13 12:18:10;;;;;;;5.68;1.55;;;19.60;95.30;;;;;;5108583;28;20556;-83
2022/06/13 12:20:56;;;;;;;;;;;19.70;95.50;;;;;;5109266;28;20040;-83
2022/06/13 12:23:33;;;;;;;5.63;0.90;;;19.60;92.40;;;;;;5107926;28;19920;-83
2022/06/13 12:26:05;;;;;;;2.70;0.50;;;19.30;94.80;;;;;;5107759;28;20063;-83
2022/06/13 12:29:02;;;;;;;3.07;0.57;;;19.20;93.40;;;;;;5089891;28;20075;-82
2022/06/13 12:31:39;;;;;;;2.40;0.40;;;19.00;91.80;;;;;;5109308;28;20069;-83
2022/06/13 12:34:27;;;;;;;6.75;0.85;;;19.00;93.20;;;;;;5108135;28;20048;-83
2022/06/13 12:37:21;;;;;;;5.53;1.05;;;19.00;93.70;;;;;;5105900;28;20131;-82
2022/06/13 12:40:11;;;;;;;8.82;1.42;;;19.00;95.10;;;;;;5110460;28;20047;-83
2022/06/13 12:43:02;;;;;;;4.60;0.88;;;19.30;95.40;;;;;;5107653;28;20637;-82
2022/06/13 12:45:47;;;;;;;4.88;0.65;;;19.70;93.50;;;;;;5105992;28;20597;-83
2022/06/13 12:48:46;;;;;;;3.33;0.60;;;19.70;93.10;;;;;;5107834;28;20082;-83
2022/06/13 12:51:24;;;;;;;2.72;0.50;;;19.60;91.90;;;;;;5021655;28;20055;-82
2022/06/13 12:54:25;;;;;;;4.05;0.43;;;19.50;94.00;;;;;;5107411;28;20116;-81
2022/06/13 12:56:53;;;;;;;1.10;0.38;;;19.50;92.70;;;;;;5108778;28;20488;-81
2022/06/13 12:59:23;;;;;;;3.53;0.73;;;19.70;93.00;;;;;;5106526;28;20508;-80
2022/06/13 13:02:11;;;;;;;6.03;0.82;;;20.00;92.50;;;;;;5106946;28;20047;-79
2022/06/13 13:05:17;;;;;;;3.70;0.85;;;20.20;89.50;;;;;;5109365;28;20043;-79
2022/06/13 13:08:04;;;;;;;2.63;0.68;;;20.40;86.80;;;;;;5024347;28;20186;-81
2022/06/13 13:11:03;;;;;;;4.22;0.45;;;20.70;86.80;;;;;;5024668;28;20721;-81
2022/06/13 13:13:53;;;;;;;3.30;0.50;;;20.90;78.40;;;;;;5096754;28;20083;-80
2022/06/13 13:16:59;;;;;;;3.35;0.50;;;20.70;83.50;;;;;;5107719;28;20056;-80
2022/06/13 13:19:31;;;;;;;3.83;0.70;;;20.60;80.70;;;;;;5066110;28;20200;-80
2022/06/13 13:22:21;;;;;;;4.40;0.85;;;20.50;83.20;;;;;;5107425;28;20070;-80
2022/06/13 13:24:56;;;;;;;3.90;0.40;;;20.40;84.40;;;;;;5105933;28;20047;-78
2022/06/13 13:27:24;;;;;;;2.03;0.47;;;20.20;84.10;;;;;;5107791;28;20408;-80
2022/06/13 13:30:23;;;;;;;5.15;0.65;;;20.10;84.20;;;;;;5108346;28;20441;-80
2022/06/13 13:33:10;;;;;;;3.70;0.57;;;20.00;80.90;;;;;;5105456;28;20120;-81
2022/06/13 13:35:56;;;;;;;7.75;0.60;;;20.00;84.20;;;;;;5108134;28;20080;-79
2022/06/13 13:38:31;;;;;;;3.80;0.52;;;20.20;88.70;;;;;;5089615;28;20445;-81
2022/06/13 13:41:10;;;;;;;3.30;0.60;;;20.60;88.40;;;;;;5105002;28;20473;-79
2022/06/13 13:43:41;;;;;;;1.90;0.38;;;20.80;83.90;;;;;;5106842;28;20043;-80
2022/06/13 13:46:42;;;;;;;1.65;0.50;;;20.70;81.30;;;;;;5105167;28;20043;-79
2022/06/13 13:49:32;;;;;;;3.50;0.68;;;20.40;76.50;;;;;;5100550;28;20055;-80
2022/06/13 13:52:02;;;;;;;3.28;0.50;;;20.10;73.40;;;;;;5107655;28;20087;-82
2022/06/13 13:54:36;;;;;;;3.95;0.60;;;19.90;79.20;;;;;;5105410;28;20052;-83
2022/06/13 13:57:10;;;;;;;4.68;0.80;;;19.90;79.70;;;;;;5106609;28;20051;-83